DLH5GI EDDN-EDDF
Flight info
| Callsign | DLH5GI |
|---|---|
| Flight time | N/A |
| Altitude | 22000 |
| Route | SUKAD1C SUKAD DCT PIWAW T159 SPESA SPESA5C |
| Aircraft | A20N/M-SDE2E3FGHIRWXY/LB1 |
Departure
| Time | 2026-04-28 08:49 |
|---|---|
| Airport | Nuremberg Airport (EDDN) |
Arrival
| Time | N/A |
|---|---|
| Airport | Frankfurt Main Airport (EDDF) |
| Time | Latitude | Longitude | Altitude | Speed | Heading |
|---|---|---|---|---|---|
| 2026-04-28 08:38 | 49.49528 | 11.07660 | 1026 ft | 0 kts | 188° |
| 2026-04-28 08:40 | 49.49551 | 11.07665 | 1026 ft | 4 kts | 189° |
| 2026-04-28 08:41 | 49.49573 | 11.07670 | 1026 ft | 4 kts | 170° |
| 2026-04-28 08:41 | 49.49594 | 11.07651 | 1026 ft | 4 kts | 117° |
| 2026-04-28 08:41 | 49.49600 | 11.07626 | 1025 ft | 0 kts | 98° |
| 2026-04-28 08:43 | 49.49599 | 11.07638 | 1026 ft | 3 kts | 98° |
| 2026-04-28 08:44 | 49.49592 | 11.07704 | 1023 ft | 10 kts | 98° |
| 2026-04-28 08:44 | 49.49581 | 11.07817 | 1027 ft | 11 kts | 98° |
| 2026-04-28 08:44 | 49.49571 | 11.07927 | 1026 ft | 11 kts | 98° |
| 2026-04-28 08:44 | 49.49560 | 11.08047 | 1028 ft | 12 kts | 98° |
| 2026-04-28 08:45 | 49.49547 | 11.08178 | 1024 ft | 13 kts | 98° |
| 2026-04-28 08:45 | 49.49538 | 11.08312 | 1029 ft | 10 kts | 79° |
| 2026-04-28 08:45 | 49.49566 | 11.08349 | 1031 ft | 11 kts | 13° |
| 2026-04-28 08:45 | 49.49615 | 11.08414 | 1034 ft | 8 kts | 86° |
| 2026-04-28 08:46 | 49.49609 | 11.08517 | 1035 ft | 16 kts | 98° |
| 2026-04-28 08:46 | 49.49591 | 11.08680 | 1036 ft | 15 kts | 99° |
| 2026-04-28 08:46 | 49.49576 | 11.08831 | 1037 ft | 14 kts | 99° |
| 2026-04-28 08:46 | 49.49560 | 11.08986 | 1039 ft | 15 kts | 98° |
| 2026-04-28 08:47 | 49.49546 | 11.09141 | 1041 ft | 14 kts | 98° |
| 2026-04-28 08:47 | 49.49533 | 11.09274 | 1044 ft | 11 kts | 98° |
| 2026-04-28 08:47 | 49.49538 | 11.09376 | 1046 ft | 8 kts | 57° |
| 2026-04-28 08:47 | 49.49568 | 11.09439 | 1048 ft | 7 kts | 53° |
| 2026-04-28 08:48 | 49.49598 | 11.09500 | 1050 ft | 7 kts | 53° |
| 2026-04-28 08:48 | 49.49625 | 11.09554 | 1051 ft | 6 kts | 49° |
| 2026-04-28 08:48 | 49.49665 | 11.09591 | 1052 ft | 8 kts | 5° |
| 2026-04-28 08:48 | 49.49705 | 11.09464 | 1051 ft | 36 kts | 280° |
| 2026-04-28 08:49 | 49.49806 | 11.08462 | 1036 ft | 151 kts | 281° |
| 2026-04-28 08:49 | 49.49999 | 11.06472 | 1567 ft | 209 kts | 278° |
| 2026-04-28 08:49 | 49.50215 | 11.04222 | 3238 ft | 219 kts | 279° |
| 2026-04-28 08:49 | 49.50468 | 11.01612 | 4132 ft | 275 kts | 278° |
| 2026-04-28 08:50 | 49.50776 | 10.98414 | 5338 ft | 312 kts | 278° |
| 2026-04-28 08:50 | 49.51087 | 10.95171 | 6984 ft | 290 kts | 278° |
| 2026-04-28 08:50 | 49.51386 | 10.92041 | 8167 ft | 299 kts | 278° |
| 2026-04-28 08:50 | 49.51686 | 10.88883 | 8722 ft | 298 kts | 278° |
| 2026-04-28 08:51 | 49.51996 | 10.85733 | 8646 ft | 289 kts | 279° |
| 2026-04-28 08:51 | 49.52304 | 10.82637 | 8757 ft | 306 kts | 279° |
| 2026-04-28 08:51 | 49.52640 | 10.79216 | 9632 ft | 338 kts | 279° |
| 2026-04-28 08:51 | 49.53000 | 10.75492 | 10832 ft | 375 kts | 278° |
| 2026-04-28 08:52 | 49.53260 | 10.72772 | 11469 ft | 397 kts | 278° |
| 2026-04-28 08:52 | 49.53797 | 10.67097 | 13226 ft | 417 kts | 278° |
| 2026-04-28 08:52 | 49.54191 | 10.62947 | 13961 ft | 385 kts | 277° |
| 2026-04-28 08:52 | 49.54574 | 10.58897 | 13371 ft | 372 kts | 277° |
| 2026-04-28 08:53 | 49.54964 | 10.55072 | 13336 ft | 363 kts | 285° |
| 2026-04-28 08:53 | 49.55955 | 10.51539 | 13334 ft | 358 kts | 300° |
| 2026-04-28 08:53 | 49.57331 | 10.48322 | 13341 ft | 360 kts | 304° |
| 2026-04-28 08:53 | 49.58742 | 10.45306 | 13342 ft | 360 kts | 305° |
| 2026-04-28 08:54 | 49.59739 | 10.43196 | 13347 ft | 360 kts | 305° |
| 2026-04-28 08:54 | 49.61208 | 10.40071 | 13347 ft | 359 kts | 304° |
| 2026-04-28 08:54 | 49.62666 | 10.36942 | 13353 ft | 361 kts | 304° |
| 2026-04-28 08:54 | 49.64124 | 10.33793 | 13355 ft | 361 kts | 304° |
| 2026-04-28 08:55 | 49.65582 | 10.30638 | 13348 ft | 361 kts | 304° |
| 2026-04-28 08:55 | 49.67007 | 10.27552 | 13352 ft | 361 kts | 304° |
| 2026-04-28 08:55 | 49.68420 | 10.24488 | 13346 ft | 362 kts | 304° |
| 2026-04-28 08:55 | 49.69877 | 10.21325 | 13352 ft | 361 kts | 304° |
| 2026-04-28 08:56 | 49.71333 | 10.18161 | 13355 ft | 362 kts | 304° |
| 2026-04-28 08:56 | 49.72789 | 10.14992 | 13343 ft | 361 kts | 304° |
| 2026-04-28 08:56 | 49.74235 | 10.11843 | 13332 ft | 361 kts | 304° |
| 2026-04-28 08:56 | 49.75693 | 10.08676 | 13332 ft | 362 kts | 304° |
| 2026-04-28 08:57 | 49.77135 | 10.05524 | 13348 ft | 365 kts | 304° |
| 2026-04-28 08:57 | 49.78670 | 10.02152 | 13609 ft | 404 kts | 304° |
| 2026-04-28 08:57 | 49.80259 | 9.98680 | 14784 ft | 418 kts | 304° |
| 2026-04-28 08:57 | 49.81920 | 9.95041 | 15446 ft | 405 kts | 304° |
| 2026-04-28 08:58 | 49.83538 | 9.91485 | 15356 ft | 404 kts | 304° |
| 2026-04-28 08:58 | 49.88663 | 9.80110 | 15325 ft | 404 kts | 300° |
| 2026-04-28 08:59 | 49.89938 | 9.76229 | 15325 ft | 403 kts | 292° |
| 2026-04-28 08:59 | 49.91009 | 9.72198 | 15326 ft | 406 kts | 291° |
| 2026-04-28 08:59 | 49.92034 | 9.68134 | 15328 ft | 404 kts | 288° |
| 2026-04-28 08:59 | 49.92590 | 9.63901 | 15300 ft | 400 kts | 270° |
| 2026-04-28 09:00 | 49.92301 | 9.59597 | 15311 ft | 404 kts | 257° |
| 2026-04-28 09:00 | 49.91566 | 9.55400 | 15330 ft | 405 kts | 251° |
| 2026-04-28 09:00 | 49.90633 | 9.51402 | 15330 ft | 401 kts | 248° |
| 2026-04-28 09:00 | 49.89584 | 9.47381 | 15329 ft | 402 kts | 247° |
| 2026-04-28 09:01 | 49.88508 | 9.43375 | 15327 ft | 403 kts | 247° |
| 2026-04-28 09:01 | 49.87545 | 9.39291 | 15312 ft | 406 kts | 258° |
| 2026-04-28 09:01 | 49.87344 | 9.34971 | 15304 ft | 404 kts | 276° |
| 2026-04-28 09:01 | 49.87937 | 9.30772 | 15309 ft | 403 kts | 287° |
| 2026-04-28 09:02 | 49.88905 | 9.26674 | 15322 ft | 405 kts | 292° |
| 2026-04-28 09:02 | 49.90064 | 9.22690 | 15322 ft | 405 kts | 294° |
| 2026-04-28 09:02 | 49.91300 | 9.18772 | 15324 ft | 408 kts | 295° |
| 2026-04-28 09:02 | 49.92561 | 9.14847 | 15325 ft | 407 kts | 295° |
| 2026-04-28 09:03 | 49.93816 | 9.10924 | 15304 ft | 405 kts | 295° |
| 2026-04-28 09:03 | 49.94782 | 9.07388 | 14909 ft | 382 kts | 283° |